createdAt,value
2023-03-15T00:02:17.730Z,24.18
2023-03-15T00:06:17.902Z,24.17
2023-03-15T00:10:18.144Z,24.17
2023-03-15T00:14:18.319Z,24.17
2023-03-15T00:18:18.474Z,24.16
2023-03-15T00:22:18.780Z,24.16
2023-03-15T00:26:18.940Z,24.14
2023-03-15T00:30:19.173Z,24.14
2023-03-15T00:34:19.373Z,24.14
2023-03-15T00:38:19.589Z,24.13
2023-03-15T00:42:19.525Z,24.13
2023-03-15T00:46:19.968Z,24.13
2023-03-15T00:50:19.456Z,24.12
2023-03-15T00:54:19.426Z,24.11
2023-03-15T00:58:20.744Z,24.11
2023-03-15T01:02:19.362Z,24.11
2023-03-15T01:06:19.346Z,24.11
2023-03-15T01:10:19.262Z,24.10
2023-03-15T01:14:19.240Z,24.09
2023-03-15T01:18:19.288Z,24.09
2023-03-15T01:22:19.883Z,24.09
2023-03-15T01:26:19.171Z,24.08
2023-03-15T01:30:19.125Z,24.08
2023-03-15T01:34:19.125Z,24.07
2023-03-15T01:38:19.180Z,24.06
2023-03-15T01:42:19.137Z,24.06
2023-03-15T01:46:19.080Z,24.06
2023-03-15T01:50:19.054Z,24.05
2023-03-15T01:54:19.052Z,24.05
2023-03-15T01:58:18.990Z,24.05
2023-03-15T02:02:18.968Z,24.04
2023-03-15T02:06:18.955Z,24.04
2023-03-15T02:10:18.882Z,24.03
2023-03-15T02:14:18.869Z,24.03
2023-03-15T02:18:18.871Z,24.01
2023-03-15T02:22:19.051Z,24.01
2023-03-15T02:26:19.004Z,24.02
2023-03-15T02:30:18.928Z,24.01
2023-03-15T02:34:18.928Z,24.01
2023-03-15T02:38:18.888Z,24.00
2023-03-15T02:42:18.984Z,24.01
2023-03-15T02:46:18.865Z,24.00
2023-03-15T02:50:18.760Z,23.99
2023-03-15T02:54:18.750Z,23.98
2023-03-15T02:58:18.719Z,23.98
2023-03-15T03:02:18.767Z,23.98
2023-03-15T03:06:18.946Z,23.97
2023-03-15T03:10:19.100Z,23.97
2023-03-15T03:14:19.316Z,23.97
2023-03-15T03:18:19.553Z,23.96
2023-03-15T03:22:19.957Z,23.95
2023-03-15T03:26:19.721Z,23.95
2023-03-15T03:30:19.621Z,23.95
2023-03-15T03:34:19.685Z,23.94
2023-03-15T03:38:19.567Z,23.93
2023-03-15T03:42:19.520Z,23.93
2023-03-15T03:46:19.541Z,23.92
2023-03-15T03:50:19.453Z,23.92
2023-03-15T03:54:19.461Z,23.92
2023-03-15T03:58:19.391Z,23.92
2023-03-15T04:02:19.339Z,23.91
2023-03-15T04:06:19.347Z,23.90
2023-03-15T04:10:19.273Z,23.90
2023-03-15T04:14:19.304Z,23.90
2023-03-15T04:18:19.250Z,23.89
2023-03-15T04:22:19.327Z,23.89
2023-03-15T04:26:19.420Z,23.87
2023-03-15T04:30:19.511Z,23.87
2023-03-15T04:34:19.507Z,23.87
2023-03-15T04:38:19.539Z,23.87
2023-03-15T04:42:19.557Z,23.86
2023-03-15T04:46:19.661Z,23.86
2023-03-15T04:50:19.747Z,23.85
2023-03-15T04:54:19.682Z,23.85
2023-03-15T04:58:19.724Z,23.85
2023-03-15T05:02:19.888Z,23.84
2023-03-15T05:06:19.868Z,23.83
2023-03-15T05:10:19.906Z,23.79
2023-03-15T05:14:19.990Z,23.73
2023-03-15T05:18:20.052Z,23.70
2023-03-15T05:22:20.183Z,23.67
2023-03-15T05:26:20.304Z,23.65
2023-03-15T05:30:20.441Z,23.64
2023-03-15T05:34:20.462Z,23.63
2023-03-15T05:38:20.505Z,23.64
2023-03-15T05:42:20.611Z,23.66
2023-03-15T05:46:20.754Z,23.68
2023-03-15T05:50:20.773Z,23.68
2023-03-15T05:54:20.872Z,23.70
2023-03-15T05:58:20.886Z,23.70
2023-03-15T06:02:21.007Z,23.70
2023-03-15T06:06:21.105Z,23.70
2023-03-15T06:10:21.244Z,23.72
2023-03-15T06:14:21.248Z,23.76
2023-03-15T06:18:21.340Z,23.78
2023-03-15T06:22:21.457Z,23.80
2023-03-15T06:26:21.527Z,23.83
2023-03-15T06:30:21.609Z,23.86
2023-03-15T06:34:21.745Z,23.88
2023-03-15T06:38:22.121Z,23.84
2023-03-15T06:42:21.976Z,23.94
2023-03-15T06:46:21.910Z,24.25
2023-03-15T06:50:22.030Z,23.91
2023-03-15T06:54:21.973Z,24.18
2023-03-15T06:58:22.076Z,24.05
2023-03-15T07:02:22.159Z,24.05
2023-03-15T07:06:22.065Z,24.16
2023-03-15T07:10:22.100Z,24.26
2023-03-15T07:14:21.999Z,24.39
2023-03-15T07:18:21.978Z,24.53
2023-03-15T07:22:21.910Z,24.63
2023-03-15T07:26:22.065Z,24.71
2023-03-15T07:30:21.864Z,24.81
2023-03-15T07:34:21.856Z,24.91
2023-03-15T07:38:21.759Z,24.51
2023-03-15T07:42:21.742Z,23.51
2023-03-15T07:46:21.785Z,23.20
2023-03-15T07:50:21.648Z,23.39
2023-03-15T07:54:21.611Z,23.67
2023-03-15T07:58:21.581Z,23.91
2023-03-15T08:02:21.590Z,24.05
2023-03-15T08:06:21.486Z,24.15
2023-03-15T08:10:21.468Z,24.35
2023-03-15T08:14:21.434Z,24.45
2023-03-15T08:18:21.471Z,24.56
2023-03-15T08:22:21.616Z,24.71
2023-03-15T08:26:21.526Z,24.83
2023-03-15T08:30:21.598Z,25.12
2023-03-15T08:34:21.689Z,25.24
2023-03-15T08:38:21.464Z,24.05
2023-03-15T08:42:21.625Z,24.00
2023-03-15T08:46:21.426Z,24.13
2023-03-15T08:50:21.690Z,24.30
2023-03-15T08:54:21.355Z,24.46
2023-03-15T08:58:21.288Z,24.57
2023-03-15T09:02:21.300Z,24.65
2023-03-15T09:06:21.289Z,24.72
2023-03-15T09:10:21.157Z,24.80
2023-03-15T09:14:21.135Z,24.87
2023-03-15T09:18:21.160Z,24.93
2023-03-15T09:22:37.904Z,24.95
2023-03-15T09:26:22.137Z,24.94
2023-03-15T09:30:20.969Z,24.83
2023-03-15T09:34:21.881Z,23.37
2023-03-15T09:38:21.009Z,22.20
2023-03-15T09:42:21.150Z,22.21
2023-03-15T09:46:21.343Z,22.46
2023-03-15T09:50:21.386Z,22.89
2023-03-15T09:54:21.518Z,23.29
2023-03-15T09:58:21.691Z,23.62
2023-03-15T10:02:21.674Z,23.89
2023-03-15T10:06:21.840Z,24.07
2023-03-15T10:10:22.112Z,24.24
2023-03-15T10:14:22.158Z,24.37
2023-03-15T10:18:22.265Z,24.46
2023-03-15T10:22:22.363Z,24.55
2023-03-15T10:26:22.500Z,24.61
2023-03-15T10:30:22.784Z,24.64
2023-03-15T10:34:22.699Z,23.93
2023-03-15T10:38:22.739Z,23.20
2023-03-15T10:42:25.309Z,22.86
2023-03-15T10:46:22.929Z,23.08
2023-03-15T10:50:22.824Z,23.35
2023-03-15T10:54:22.831Z,23.57
2023-03-15T10:58:25.594Z,23.69
2023-03-15T11:02:22.674Z,23.78
2023-03-15T11:06:22.676Z,23.88
2023-03-15T11:10:22.680Z,23.80
2023-03-15T11:14:22.615Z,23.80
2023-03-15T11:18:22.558Z,24.01
2023-03-15T11:22:22.558Z,24.24
2023-03-15T11:26:32.166Z,24.16
2023-03-15T11:30:23.708Z,23.75
2023-03-15T11:34:22.492Z,23.50
2023-03-15T11:38:22.409Z,23.88
2023-03-15T11:42:22.588Z,24.29
2023-03-15T11:46:22.647Z,24.70
2023-03-15T11:50:22.744Z,24.96
2023-03-15T11:54:22.879Z,25.17
2023-03-15T11:58:22.798Z,25.39
2023-03-15T12:02:22.808Z,25.50
2023-03-15T12:06:22.747Z,25.70
2023-03-15T12:10:22.674Z,25.82
2023-03-15T12:14:22.668Z,25.91
2023-03-15T12:18:22.684Z,25.90
2023-03-15T12:22:22.584Z,25.83
2023-03-15T12:26:22.584Z,25.76
2023-03-15T12:30:22.546Z,25.70
2023-03-15T12:34:22.455Z,25.65
2023-03-15T12:38:22.468Z,25.68
2023-03-15T12:42:22.403Z,25.69
2023-03-15T12:46:22.418Z,25.66
2023-03-15T12:50:22.346Z,25.69
2023-03-15T12:54:22.274Z,25.63
2023-03-15T12:58:22.248Z,25.63
2023-03-15T13:02:27.020Z,25.70
2023-03-15T13:06:23.172Z,25.70
2023-03-15T13:10:22.146Z,25.78
2023-03-15T13:14:22.114Z,25.84
2023-03-15T13:18:22.061Z,25.87
2023-03-15T13:22:22.087Z,25.82
2023-03-15T13:26:22.170Z,25.81
2023-03-15T13:30:22.176Z,25.79
2023-03-15T13:34:22.170Z,25.79
2023-03-15T13:38:22.323Z,25.79
2023-03-15T13:42:22.358Z,25.83
2023-03-15T13:46:22.464Z,25.86
2023-03-15T13:50:22.452Z,25.95
2023-03-15T13:54:22.478Z,25.99
2023-03-15T13:58:22.549Z,25.99
2023-03-15T14:02:22.529Z,25.98
2023-03-15T14:06:22.608Z,25.95
2023-03-15T14:10:22.859Z,25.93
2023-03-15T14:14:22.652Z,25.92
2023-03-15T14:18:22.698Z,25.90
2023-03-15T14:22:22.783Z,25.89
2023-03-15T14:26:22.810Z,25.87
2023-03-15T14:30:22.854Z,25.85
2023-03-15T14:34:22.934Z,25.88
2023-03-15T14:38:22.961Z,25.85
2023-03-15T14:42:23.103Z,25.82
2023-03-15T14:46:23.137Z,25.80
2023-03-15T14:50:23.350Z,25.77
2023-03-15T14:54:23.359Z,25.74
2023-03-15T14:58:23.424Z,25.68
2023-03-15T15:02:23.593Z,25.61
2023-03-15T15:06:23.630Z,25.53
2023-03-15T15:10:23.810Z,25.47
2023-03-15T15:14:24.315Z,25.42
2023-03-15T15:18:24.183Z,25.32
2023-03-15T15:22:24.375Z,25.24
2023-03-15T15:26:24.290Z,25.26
2023-03-15T15:30:24.260Z,25.22
2023-03-15T15:34:24.247Z,25.21
2023-03-15T15:38:24.161Z,25.25
2023-03-15T15:42:24.133Z,25.22
2023-03-15T15:46:24.188Z,25.21
2023-03-15T15:50:24.081Z,25.19
2023-03-15T15:54:24.020Z,25.18
2023-03-15T15:58:23.992Z,25.15
2023-03-15T16:02:24.158Z,25.12
2023-03-15T16:06:23.939Z,25.11
2023-03-15T16:10:23.895Z,25.08
2023-03-15T16:14:23.905Z,25.06
2023-03-15T16:18:23.826Z,25.03
2023-03-15T16:22:23.787Z,25.02
2023-03-15T16:26:23.785Z,24.99
2023-03-15T16:30:23.704Z,24.97
2023-03-15T16:34:23.674Z,24.94
2023-03-15T16:38:23.604Z,24.92
2023-03-15T16:42:23.601Z,24.89
2023-03-15T16:46:23.646Z,24.89
2023-03-15T16:50:23.542Z,24.86
2023-03-15T16:54:39.963Z,24.83
2023-03-15T16:58:24.508Z,24.81
2023-03-15T17:02:23.399Z,24.80
2023-03-15T17:06:23.356Z,24.77
2023-03-15T17:10:23.389Z,24.75
2023-03-15T17:14:23.315Z,24.73
2023-03-15T17:18:23.847Z,24.72
2023-03-15T17:22:23.372Z,24.71
2023-03-15T17:26:23.416Z,24.69
2023-03-15T17:30:23.517Z,24.66
2023-03-15T17:34:23.568Z,24.64
2023-03-15T17:38:23.643Z,24.62
2023-03-15T17:42:23.736Z,24.60
2023-03-15T17:46:23.892Z,24.58
2023-03-15T17:50:23.931Z,24.57
2023-03-15T17:54:23.997Z,24.55
2023-03-15T17:58:24.085Z,24.54
2023-03-15T18:02:24.137Z,24.51
2023-03-15T18:06:24.240Z,24.49
2023-03-15T18:10:24.377Z,24.48
2023-03-15T18:14:24.466Z,24.47
2023-03-15T18:18:24.606Z,24.44
2023-03-15T18:22:24.711Z,24.43
2023-03-15T18:26:24.793Z,24.41
2023-03-15T18:30:24.971Z,24.40
2023-03-15T18:34:25.095Z,24.38
2023-03-15T18:38:25.225Z,24.37
2023-03-15T18:42:25.357Z,24.38
2023-03-15T18:46:25.583Z,24.39
2023-03-15T18:50:26.446Z,24.38
2023-03-15T18:54:25.841Z,24.35
2023-03-15T18:58:25.942Z,24.32
2023-03-15T19:02:26.173Z,24.30
2023-03-15T19:06:26.288Z,24.28
2023-03-15T19:10:26.435Z,24.26
2023-03-15T19:14:26.619Z,24.23
2023-03-15T19:18:26.890Z,24.21
2023-03-15T19:22:27.058Z,24.19
2023-03-15T19:26:27.229Z,24.18
2023-03-15T19:30:27.489Z,24.18
2023-03-15T19:34:27.710Z,24.18
2023-03-15T19:38:27.866Z,24.18
2023-03-15T19:42:28.056Z,24.17
2023-03-15T19:46:28.306Z,24.17
2023-03-15T19:50:28.489Z,24.16
2023-03-15T19:54:28.728Z,24.15
2023-03-15T19:58:28.928Z,24.14
2023-03-15T20:02:31.281Z,24.14
2023-03-15T20:06:29.088Z,24.13
2023-03-15T20:10:29.054Z,24.13
2023-03-15T20:14:29.061Z,24.12
2023-03-15T20:18:29.061Z,24.13
2023-03-15T20:22:29.457Z,24.11
2023-03-15T20:26:28.940Z,24.11
2023-03-15T20:30:28.866Z,24.10
2023-03-15T20:34:28.882Z,24.08
2023-03-15T20:38:28.793Z,24.08
2023-03-15T20:42:28.799Z,24.08
2023-03-15T20:46:28.826Z,24.08
2023-03-15T20:50:28.690Z,24.06
2023-03-15T20:54:28.660Z,24.05
2023-03-15T20:58:28.606Z,24.05
2023-03-15T21:02:28.970Z,24.05
2023-03-15T21:06:28.570Z,24.04
2023-03-15T21:10:28.960Z,24.03
2023-03-15T21:14:28.543Z,24.03
2023-03-15T21:18:28.525Z,24.02
2023-03-15T21:22:28.582Z,24.01
2023-03-15T21:26:28.459Z,24.00
2023-03-15T21:30:28.380Z,24.00
2023-03-15T21:34:28.373Z,23.98
2023-03-15T21:38:28.317Z,23.98
2023-03-15T21:42:28.367Z,23.98
2023-03-15T21:46:28.251Z,23.97
2023-03-15T21:50:28.200Z,23.96
2023-03-15T21:54:28.148Z,23.96
2023-03-15T21:58:28.183Z,23.95
2023-03-15T22:02:28.377Z,23.95
2023-03-15T22:06:28.603Z,23.94
2023-03-15T22:10:28.779Z,23.93
2023-03-15T22:14:28.882Z,23.92
2023-03-15T22:18:28.930Z,23.92
2023-03-15T22:22:29.024Z,23.92
2023-03-15T22:26:29.166Z,23.92
2023-03-15T22:30:29.417Z,23.91
2023-03-15T22:34:29.521Z,23.91
2023-03-15T22:38:29.513Z,23.89
2023-03-15T22:42:29.772Z,23.89
2023-03-15T22:46:29.768Z,23.89
2023-03-15T22:50:29.766Z,23.88
2023-03-15T22:54:29.723Z,23.88
2023-03-15T22:58:29.893Z,23.87
2023-03-15T23:02:29.918Z,23.87
2023-03-15T23:06:29.954Z,23.86
2023-03-15T23:10:30.074Z,23.86
2023-03-15T23:14:30.100Z,23.85
2023-03-15T23:18:30.143Z,23.85
2023-03-15T23:22:30.182Z,23.84
2023-03-15T23:26:30.547Z,23.83
2023-03-15T23:30:30.190Z,23.82
2023-03-15T23:34:30.240Z,23.83
2023-03-15T23:38:30.273Z,23.82
2023-03-15T23:42:30.357Z,23.81
2023-03-15T23:46:30.460Z,23.81
2023-03-15T23:50:30.865Z,23.80
2023-03-15T23:54:30.506Z,23.80
2023-03-15T23:58:30.509Z,23.79
